Decoded Metar for YSWG (WAGGA WAGGA in AUSTRALIA) (IATA:WGA) | Meteo·Mobile Aviation Weather
aviador You're here:

YSWG Decoded Metar

WAGGA WAGGA in AUSTRALIA
Report Time2019-02-18 10:00:00
UTC Time2019-02-18 10:37:29
Flight Rules vfr VFR
Wind110° at 05 kt
W.Decomp.*RWY 12: 4.6 kt HW 1.9 kt LCW
RWY 05: 3.3 kt HW 3.7 kt RCW
W.Rank110° ranks 5
Current wind is below 110° avg. (5.9)
Visibility9999 m
Phenomena:N/A
Clouds:N/A
Expected CloudBase > 7,200 ft AGL from Temp-Dew spread
CeilingNone
Temp28°C (ISA +14)
Dew Point10°C (32% RH)
Heat Index27.2°C
AAT26.2°C
QNH1004 hPa
Density Alt2,825 ft
Elevation699 ft
Report Wrong Elevation
Raw Report
YSWG 181000Z AUTO 11005KT 060V150 9999 // NCD 28/10 Q1004=

Extra information for YSWG:More info

Metar Taf Metar & Taf Last 4 Metars F.Rules Stats Wind Profile Meteogram Temp Stats Airport Information Weather charts Add Link Nearby VenuesMetar ALERT Operation Metar Decoded Social comments